createdAt,value
2019-03-21T00:00:49.627Z,86.35
2019-03-21T00:01:48.604Z,86.45
2019-03-21T00:02:48.577Z,86.64
2019-03-21T00:03:49.297Z,86.87
2019-03-21T00:04:48.517Z,86.74
2019-03-21T00:05:48.491Z,86.83
2019-03-21T00:06:48.459Z,86.93
2019-03-21T00:07:48.431Z,86.93
2019-03-21T00:08:48.407Z,86.93
2019-03-21T00:09:48.375Z,86.83
2019-03-21T00:10:48.345Z,86.83
2019-03-21T00:11:48.316Z,86.83
2019-03-21T00:12:48.289Z,87.02
2019-03-21T00:13:48.259Z,87.02
2019-03-21T00:14:48.235Z,87.12
2019-03-21T00:15:48.202Z,87.21
2019-03-21T00:16:48.174Z,87.49
2019-03-21T00:17:48.145Z,87.68
2019-03-21T00:18:48.118Z,87.77
2019-03-21T00:19:48.089Z,87.77
2019-03-21T00:20:48.060Z,87.77
2019-03-21T00:21:48.031Z,87.97
2019-03-21T00:22:48.001Z,87.77
2019-03-21T00:23:47.973Z,87.68
2019-03-21T00:24:50.951Z,87.77
2019-03-21T00:25:47.919Z,87.59
2019-03-21T00:26:47.932Z,87.77
2019-03-21T00:27:47.859Z,88.16
2019-03-21T00:28:47.831Z,88.16
2019-03-21T00:29:47.801Z,88.16
2019-03-21T00:30:47.775Z,88.54
2019-03-21T00:31:47.744Z,88.63
2019-03-21T00:32:47.715Z,88.54
2019-03-21T00:33:47.685Z,88.44
2019-03-21T00:34:47.657Z,88.73
2019-03-21T00:35:47.629Z,88.92
2019-03-21T00:36:47.651Z,88.82
2019-03-21T00:37:47.571Z,88.82
2019-03-21T00:38:47.542Z,88.92
2019-03-21T00:39:47.513Z,89.11
2019-03-21T00:40:47.487Z,89.11
2019-03-21T00:41:47.456Z,89.77
2019-03-21T00:42:47.427Z,90.24
2019-03-21T00:43:47.398Z,90.53
2019-03-21T00:44:47.370Z,90.43
2019-03-21T00:45:47.342Z,90.53
2019-03-21T00:46:48.813Z,90.53
2019-03-21T00:47:47.334Z,90.53
2019-03-21T00:48:47.256Z,90.72
2019-03-21T00:49:47.226Z,91.09
2019-03-21T00:50:47.196Z,91.43
2019-03-21T00:51:47.166Z,91.62
2019-03-21T00:52:47.139Z,91.52
2019-03-21T00:53:47.110Z,91.33
2019-03-21T00:54:47.080Z,91.28
2019-03-21T00:55:47.053Z,91.14
2019-03-21T00:56:47.027Z,91.24
2019-03-21T00:57:46.994Z,91.24
2019-03-21T00:58:46.967Z,91.33
2019-03-21T00:59:46.936Z,91.52
2019-03-21T01:00:46.908Z,91.62
2019-03-21T01:01:46.880Z,91.71
2019-03-21T01:02:46.851Z,91.71
2019-03-21T01:03:50.574Z,91.62
2019-03-21T01:04:46.792Z,91.71
2019-03-21T01:05:46.765Z,91.81
2019-03-21T01:06:46.733Z,91.81
2019-03-21T01:07:46.705Z,91.81
2019-03-21T01:08:46.678Z,91.90
2019-03-21T01:09:46.646Z,92.00
2019-03-21T01:10:46.622Z,92.28
2019-03-21T01:11:46.589Z,92.19
2019-03-21T01:12:46.560Z,92.28
2019-03-21T01:13:46.533Z,92.19
2019-03-21T01:14:46.500Z,92.19
2019-03-21T01:15:46.472Z,92.47
2019-03-21T01:16:46.443Z,92.76
2019-03-21T01:17:46.415Z,92.76
2019-03-21T01:18:46.384Z,92.57
2019-03-21T01:19:46.358Z,92.57
2019-03-21T01:20:47.076Z,92.57
2019-03-21T01:21:46.298Z,92.57
2019-03-21T01:22:46.268Z,92.76
2019-03-21T01:23:46.242Z,92.85
2019-03-21T01:24:46.209Z,92.94
2019-03-21T01:25:46.181Z,92.85
2019-03-21T01:26:46.150Z,93.13
2019-03-21T01:27:46.125Z,92.85
2019-03-21T01:28:46.093Z,92.66
2019-03-21T01:29:46.064Z,92.57
2019-03-21T01:30:46.034Z,92.47
2019-03-21T01:31:46.005Z,92.57
2019-03-21T01:32:45.978Z,92.57
2019-03-21T01:33:45.947Z,92.76
2019-03-21T01:34:45.917Z,92.76
2019-03-21T01:35:45.887Z,92.85
2019-03-21T01:36:45.858Z,92.85
2019-03-21T01:37:45.830Z,92.66
2019-03-21T01:38:45.799Z,92.47
2019-03-21T01:39:45.771Z,92.47
2019-03-21T01:40:45.741Z,92.28
2019-03-21T01:41:45.714Z,92.19
2019-03-21T01:42:45.683Z,92.00
2019-03-21T01:43:45.654Z,91.90
2019-03-21T01:44:45.626Z,91.81
2019-03-21T01:45:45.600Z,91.71
2019-03-21T01:46:45.567Z,91.71
2019-03-21T01:47:45.536Z,91.62
2019-03-21T01:48:45.506Z,91.62
2019-03-21T01:49:45.479Z,91.33
2019-03-21T01:50:45.447Z,91.24
2019-03-21T01:51:45.422Z,91.24
2019-03-21T01:52:45.388Z,91.14
2019-03-21T01:53:45.361Z,91.14
2019-03-21T01:54:45.333Z,91.24
2019-03-21T01:55:45.301Z,91.24
2019-03-21T01:56:45.274Z,91.33
2019-03-21T01:57:45.243Z,91.24
2019-03-21T01:58:45.212Z,91.43
2019-03-21T01:59:45.182Z,91.81
2019-03-21T02:00:45.153Z,91.90
2019-03-21T02:01:45.125Z,91.81
2019-03-21T02:02:45.094Z,91.90
2019-03-21T02:03:45.066Z,91.90
2019-03-21T02:04:45.038Z,92.00
2019-03-21T02:05:45.008Z,92.28
2019-03-21T02:06:44.977Z,92.66
2019-03-21T02:07:44.948Z,92.76
2019-03-21T02:08:44.919Z,93.04
2019-03-21T02:09:44.893Z,92.94
2019-03-21T02:10:44.872Z,93.13
2019-03-21T02:11:44.834Z,93.23
2019-03-21T02:12:44.804Z,93.32
2019-03-21T02:13:44.772Z,93.61
2019-03-21T02:14:51.987Z,93.70
2019-03-21T02:15:46.516Z,93.70
2019-03-21T02:16:44.684Z,94.08
2019-03-21T02:17:44.654Z,94.13
2019-03-21T02:18:44.625Z,94.13
2019-03-21T02:19:46.847Z,94.32
2019-03-21T02:20:44.566Z,94.42
2019-03-21T02:21:44.536Z,94.60
2019-03-21T02:22:44.508Z,94.51
2019-03-21T02:23:44.480Z,94.51
2019-03-21T02:24:44.449Z,94.42
2019-03-21T02:25:44.420Z,94.51
2019-03-21T02:26:44.391Z,94.42
2019-03-21T02:27:44.361Z,94.23
2019-03-21T02:28:44.331Z,94.60
2019-03-21T02:29:44.302Z,94.60
2019-03-21T02:30:44.271Z,94.60
2019-03-21T02:31:44.241Z,94.60
2019-03-21T02:32:44.214Z,94.60
2019-03-21T02:33:44.186Z,94.98
2019-03-21T02:34:44.165Z,95.36
2019-03-21T02:35:44.126Z,95.45
2019-03-21T02:36:44.852Z,95.74
2019-03-21T02:37:44.067Z,95.83
2019-03-21T02:38:44.037Z,95.64
2019-03-21T02:39:58.162Z,95.64
2019-03-21T02:40:43.978Z,95.83
2019-03-21T02:41:43.953Z,96.31
2019-03-21T02:42:43.919Z,96.78
2019-03-21T02:43:43.905Z,97.16
2019-03-21T02:44:44.023Z,97.35
2019-03-21T02:45:43.850Z,97.35
2019-03-21T02:46:43.803Z,97.25
2019-03-21T02:47:43.778Z,97.25
2019-03-21T02:48:43.741Z,97.16
2019-03-21T02:49:43.713Z,97.25
2019-03-21T02:50:43.687Z,97.44
2019-03-21T02:51:43.660Z,97.35
2019-03-21T02:52:43.625Z,97.63
2019-03-21T02:53:43.596Z,97.54
2019-03-21T02:54:43.566Z,97.25
2019-03-21T02:55:43.535Z,97.44
2019-03-21T02:56:43.508Z,97.73
2019-03-21T02:57:43.478Z,98.01
2019-03-21T02:58:43.450Z,98.30
2019-03-21T02:59:43.418Z,98.39
2019-03-21T03:00:43.388Z,98.58
2019-03-21T03:01:43.359Z,98.49
2019-03-21T03:02:43.331Z,98.91
2019-03-21T03:03:43.303Z,99.05
2019-03-21T03:04:43.278Z,98.77
2019-03-21T03:05:43.242Z,98.49
2019-03-21T03:06:43.211Z,98.58
2019-03-21T03:07:43.181Z,98.20
2019-03-21T03:08:43.155Z,98.44
2019-03-21T03:09:43.125Z,98.82
2019-03-21T03:10:43.100Z,98.86
2019-03-21T03:11:43.064Z,99.15
2019-03-21T03:12:43.038Z,99.05
2019-03-21T03:13:43.005Z,98.86
2019-03-21T03:14:42.978Z,98.86
2019-03-21T03:15:42.944Z,98.58
2019-03-21T03:16:42.915Z,98.39
2019-03-21T03:17:42.886Z,98.20
2019-03-21T03:18:42.857Z,98.01
2019-03-21T03:19:42.831Z,98.58
2019-03-21T03:20:42.801Z,98.20
2019-03-21T03:21:42.768Z,98.39
2019-03-21T03:22:42.738Z,98.58
2019-03-21T03:23:42.708Z,98.58
2019-03-21T03:24:42.678Z,98.77
2019-03-21T03:25:42.648Z,98.91
2019-03-21T03:26:42.619Z,99.01
2019-03-21T03:27:42.592Z,99.19
2019-03-21T03:28:42.569Z,99.57
2019-03-21T03:29:42.530Z,99.99
2019-03-21T03:30:42.505Z,99.99
2019-03-21T03:31:42.475Z,99.99
2019-03-21T03:32:42.463Z,99.99
2019-03-21T03:33:42.424Z,99.99
2019-03-21T03:34:42.382Z,99.99
2019-03-21T03:35:42.353Z,99.99
2019-03-21T03:36:42.324Z,99.99
2019-03-21T03:37:42.297Z,99.99
2019-03-21T03:38:42.264Z,99.99
2019-03-21T03:39:42.242Z,99.99
2019-03-21T03:40:42.206Z,99.99
2019-03-21T03:41:42.176Z,99.99
2019-03-21T03:42:42.151Z,99.99
2019-03-21T03:43:42.114Z,99.99
2019-03-21T03:44:42.085Z,99.99
2019-03-21T03:45:42.054Z,99.99
2019-03-21T03:46:42.030Z,99.99
2019-03-21T03:47:41.996Z,99.99
2019-03-21T03:48:41.966Z,99.99
2019-03-21T03:49:41.937Z,99.99
2019-03-21T03:50:41.906Z,99.99
2019-03-21T03:51:41.874Z,99.99
2019-03-21T03:52:41.847Z,99.99
2019-03-21T03:53:42.569Z,99.99
2019-03-21T03:54:41.787Z,99.99
2019-03-21T03:55:41.757Z,99.99
2019-03-21T03:56:41.726Z,99.99
2019-03-21T03:57:41.697Z,99.99
2019-03-21T03:58:41.667Z,99.99
2019-03-21T03:59:41.636Z,99.99
2019-03-21T04:00:41.607Z,99.99
2019-03-21T04:01:41.582Z,99.99
2019-03-21T04:02:41.549Z,99.99
2019-03-21T04:03:41.521Z,99.99
2019-03-21T04:04:41.487Z,99.99
2019-03-21T04:05:41.466Z,99.99
2019-03-21T04:06:41.428Z,99.99
2019-03-21T04:07:41.398Z,99.99
2019-03-21T04:08:41.366Z,99.99
2019-03-21T04:09:41.338Z,99.99
2019-03-21T04:10:41.306Z,99.99
2019-03-21T04:11:41.280Z,99.99
2019-03-21T04:12:41.248Z,99.99
2019-03-21T04:13:41.233Z,99.99
2019-03-21T04:14:41.187Z,99.99
2019-03-21T04:15:51.800Z,99.99
2019-03-21T04:16:41.126Z,99.99
2019-03-21T04:17:41.096Z,99.99
2019-03-21T04:18:41.065Z,99.99
2019-03-21T04:19:41.035Z,99.99
2019-03-21T04:20:42.508Z,99.99
2019-03-21T04:21:40.977Z,99.99
2019-03-21T04:22:40.959Z,99.99
2019-03-21T04:23:40.916Z,99.99
2019-03-21T04:24:40.906Z,99.99
2019-03-21T04:25:40.854Z,99.99
2019-03-21T04:26:40.823Z,99.99
2019-03-21T04:27:40.792Z,99.99
2019-03-21T04:28:40.764Z,99.99
2019-03-21T04:29:40.737Z,99.99
2019-03-21T04:30:40.702Z,99.99
2019-03-21T04:31:40.674Z,99.99
2019-03-21T04:32:40.643Z,99.99
2019-03-21T04:33:40.614Z,99.99
2019-03-21T04:34:40.580Z,99.99
2019-03-21T04:35:40.549Z,99.99
2019-03-21T04:36:40.548Z,99.99
2019-03-21T04:37:40.489Z,99.99
2019-03-21T04:38:40.457Z,99.99
2019-03-21T04:39:40.428Z,99.99
2019-03-21T04:40:40.396Z,99.99
2019-03-21T04:41:40.366Z,99.99
2019-03-21T04:42:40.335Z,99.99
2019-03-21T04:43:40.307Z,99.99
2019-03-21T04:44:40.275Z,99.99
2019-03-21T04:45:40.243Z,99.99
2019-03-21T04:46:40.217Z,99.99
2019-03-21T04:47:40.183Z,99.99
2019-03-21T04:48:40.152Z,99.99
2019-03-21T04:49:40.121Z,99.99
2019-03-21T04:50:40.090Z,99.99
2019-03-21T04:51:40.059Z,99.99
2019-03-21T04:52:40.029Z,99.99
2019-03-21T04:53:40.000Z,99.99
2019-03-21T04:54:39.968Z,99.99
2019-03-21T04:55:39.938Z,99.99
2019-03-21T04:56:39.908Z,99.99
2019-03-21T04:57:39.876Z,99.99
2019-03-21T04:58:39.847Z,99.99
2019-03-21T04:59:39.814Z,99.99
2019-03-21T05:00:39.785Z,99.99
2019-03-21T05:01:39.759Z,99.99
2019-03-21T05:02:39.726Z,99.99
2019-03-21T05:03:39.695Z,99.99
2019-03-21T05:04:39.662Z,99.99
2019-03-21T05:05:39.632Z,99.99
2019-03-21T05:06:39.603Z,99.99
2019-03-21T05:07:39.570Z,99.99
2019-03-21T05:08:39.540Z,99.99
2019-03-21T05:09:40.258Z,99.99
2019-03-21T05:10:39.477Z,99.99
2019-03-21T05:11:39.446Z,99.99
2019-03-21T05:12:39.415Z,99.99
2019-03-21T05:13:39.387Z,99.99
2019-03-21T05:14:39.353Z,99.99
2019-03-21T05:15:39.322Z,99.99
2019-03-21T05:16:39.293Z,99.99
2019-03-21T05:17:39.274Z,99.99
2019-03-21T05:18:39.231Z,99.99
2019-03-21T05:19:39.451Z,99.99
2019-03-21T05:20:39.169Z,99.99
2019-03-21T05:21:39.139Z,99.99
2019-03-21T05:22:39.108Z,99.99
2019-03-21T05:23:39.078Z,99.99
2019-03-21T05:24:39.047Z,99.99
2019-03-21T05:25:39.016Z,99.99
2019-03-21T05:26:38.983Z,99.99
2019-03-21T05:27:38.953Z,99.99
2019-03-21T05:28:38.923Z,99.99
2019-03-21T05:29:38.892Z,99.99
2019-03-21T05:30:38.860Z,99.99
2019-03-21T05:31:38.829Z,99.99
2019-03-21T05:32:38.800Z,99.99
2019-03-21T05:33:38.770Z,99.99
2019-03-21T05:34:38.738Z,99.99
2019-03-21T05:35:38.707Z,99.99
2019-03-21T05:36:38.677Z,99.99
2019-03-21T05:37:38.646Z,99.99
2019-03-21T05:38:38.614Z,99.99
2019-03-21T05:39:38.589Z,99.99
2019-03-21T05:40:38.554Z,99.99
2019-03-21T05:41:38.523Z,99.99
2019-03-21T05:42:38.491Z,99.99
2019-03-21T05:43:38.460Z,99.99
2019-03-21T05:44:38.431Z,99.99
2019-03-21T05:45:38.399Z,99.99
2019-03-21T05:46:38.369Z,99.99
2019-03-21T05:47:38.338Z,99.99
2019-03-21T05:48:38.306Z,99.99
2019-03-21T05:49:38.278Z,99.99
2019-03-21T05:50:38.246Z,99.99
2019-03-21T05:51:38.215Z,99.99
2019-03-21T05:52:38.184Z,99.99
2019-03-21T05:53:38.154Z,99.99
2019-03-21T05:54:38.122Z,99.99
2019-03-21T05:55:38.092Z,99.99
2019-03-21T05:56:38.061Z,99.99
2019-03-21T05:57:38.032Z,99.99
2019-03-21T05:58:37.999Z,99.99
2019-03-21T05:59:37.970Z,99.99
2019-03-21T06:00:37.938Z,99.99
2019-03-21T06:01:37.908Z,99.99
2019-03-21T06:02:37.877Z,99.99
2019-03-21T06:03:37.846Z,99.99
2019-03-21T06:04:37.817Z,99.99
2019-03-21T06:05:37.785Z,99.99
2019-03-21T06:06:37.754Z,99.99
2019-03-21T06:07:37.723Z,99.99
2019-03-21T06:08:37.691Z,99.99
2019-03-21T06:09:37.661Z,99.99
2019-03-21T06:10:37.630Z,99.99
2019-03-21T06:11:39.592Z,99.99
2019-03-21T06:12:37.570Z,99.99
2019-03-21T06:13:37.539Z,99.99
2019-03-21T06:14:37.510Z,99.99
2019-03-21T06:15:37.476Z,99.99
2019-03-21T06:16:37.986Z,99.99
2019-03-21T06:17:38.169Z,99.99
2019-03-21T06:18:37.386Z,99.99
2019-03-21T06:19:37.359Z,99.99
2019-03-21T06:20:37.325Z,99.99
2019-03-21T06:21:37.295Z,99.99
2019-03-21T06:22:37.271Z,99.99
2019-03-21T06:23:37.234Z,99.99
2019-03-21T06:24:37.203Z,99.99
2019-03-21T06:25:37.174Z,99.99
2019-03-21T06:26:37.144Z,99.99
2019-03-21T06:27:37.113Z,99.99
2019-03-21T06:28:37.082Z,99.99
2019-03-21T06:29:37.054Z,99.99
2019-03-21T06:30:37.024Z,99.99
2019-03-21T06:31:36.991Z,99.99
2019-03-21T06:32:36.961Z,99.99
2019-03-21T06:33:37.682Z,99.99
2019-03-21T06:34:36.900Z,99.99
2019-03-21T06:35:36.871Z,99.99
2019-03-21T06:36:36.840Z,99.99
2019-03-21T06:37:36.809Z,99.99
2019-03-21T06:38:36.780Z,99.99
2019-03-21T06:39:36.749Z,99.99
2019-03-21T06:40:36.720Z,99.99
2019-03-21T06:41:36.690Z,99.96
2019-03-21T06:42:38.948Z,99.39
2019-03-21T06:43:36.630Z,98.82
2019-03-21T06:44:36.600Z,98.25
2019-03-21T06:45:47.296Z,97.87
2019-03-21T06:46:36.539Z,97.68
2019-03-21T06:47:36.511Z,97.40
2019-03-21T06:48:36.481Z,97.40
2019-03-21T06:49:38.702Z,97.02
2019-03-21T06:50:36.420Z,96.83
2019-03-21T06:51:36.391Z,96.73
2019-03-21T06:52:36.361Z,96.83
2019-03-21T06:53:36.331Z,96.55
2019-03-21T06:54:36.299Z,96.45
2019-03-21T06:55:38.523Z,96.64
2019-03-21T06:56:36.241Z,96.36
2019-03-21T06:57:36.211Z,96.22
2019-03-21T06:58:36.181Z,96.03
2019-03-21T06:59:36.151Z,95.84
2019-03-21T07:00:36.121Z,95.65
2019-03-21T07:01:36.845Z,95.45
2019-03-21T07:02:36.061Z,95.36
2019-03-21T07:03:36.033Z,94.98
2019-03-21T07:04:36.002Z,94.89
2019-03-21T07:05:35.972Z,94.89
2019-03-21T07:06:35.943Z,94.79
2019-03-21T07:07:35.915Z,94.70
2019-03-21T07:08:35.885Z,94.13
2019-03-21T07:09:35.855Z,93.94
2019-03-21T07:10:35.824Z,93.75
2019-03-21T07:11:35.795Z,93.37
2019-03-21T07:12:35.779Z,93.08
2019-03-21T07:13:35.736Z,92.99
2019-03-21T07:14:35.705Z,93.08
2019-03-21T07:15:35.676Z,92.52
2019-03-21T07:16:35.647Z,92.61
2019-03-21T07:17:42.378Z,92.33
2019-03-21T07:18:35.588Z,92.23
2019-03-21T07:19:35.563Z,92.71
2019-03-21T07:20:35.529Z,92.61
2019-03-21T07:21:35.501Z,93.04
2019-03-21T07:22:35.471Z,94.08
2019-03-21T07:23:36.192Z,93.04
2019-03-21T07:24:35.412Z,92.28
2019-03-21T07:25:35.382Z,90.67
2019-03-21T07:26:35.354Z,89.81
2019-03-21T07:27:35.325Z,89.53
2019-03-21T07:28:35.297Z,89.76
2019-03-21T07:29:35.268Z,89.34
2019-03-21T07:30:35.238Z,89.43
2019-03-21T07:31:35.209Z,88.96
2019-03-21T07:32:35.181Z,89.06
2019-03-21T07:33:35.153Z,89.53
2019-03-21T07:34:35.122Z,89.43
2019-03-21T07:35:35.093Z,89.58
2019-03-21T07:36:35.065Z,88.91
2019-03-21T07:37:35.037Z,88.91
2019-03-21T07:38:35.007Z,88.91
2019-03-21T07:39:34.983Z,89.00
2019-03-21T07:40:34.949Z,89.10
2019-03-21T07:41:34.922Z,88.81
2019-03-21T07:42:34.892Z,88.48
2019-03-21T07:43:34.864Z,88.58
2019-03-21T07:44:34.838Z,88.96
2019-03-21T07:45:34.852Z,89.06
2019-03-21T07:46:34.780Z,89.43
2019-03-21T07:47:34.749Z,89.91
2019-03-21T07:48:34.723Z,89.91
2019-03-21T07:49:34.693Z,88.96
2019-03-21T07:50:34.663Z,88.58
2019-03-21T07:51:34.635Z,88.58
2019-03-21T07:52:34.616Z,88.58
2019-03-21T07:53:34.584Z,88.72
2019-03-21T07:54:34.561Z,88.53
2019-03-21T07:55:35.271Z,88.34
2019-03-21T07:56:34.494Z,88.15
2019-03-21T07:57:34.465Z,87.87
2019-03-21T07:58:34.437Z,87.58
2019-03-21T07:59:34.409Z,87.58
2019-03-21T08:00:34.379Z,87.87
2019-03-21T08:01:34.350Z,87.96
2019-03-21T08:02:34.320Z,87.49
2019-03-21T08:03:34.291Z,87.39
2019-03-21T08:04:34.267Z,87.20
2019-03-21T08:05:40.250Z,87.39
2019-03-21T08:06:36.459Z,87.11
2019-03-21T08:07:34.180Z,86.63
2019-03-21T08:08:34.150Z,86.63
2019-03-21T08:09:34.220Z,86.91
2019-03-21T08:10:34.101Z,86.82
2019-03-21T08:11:34.066Z,87.01
2019-03-21T08:12:34.041Z,87.20
2019-03-21T08:13:34.012Z,86.82
2019-03-21T08:14:33.981Z,86.72
2019-03-21T08:15:33.951Z,86.72
2019-03-21T08:16:33.923Z,86.44
2019-03-21T08:17:33.896Z,86.54
2019-03-21T08:18:33.866Z,87.01
2019-03-21T08:19:33.839Z,86.91
2019-03-21T08:20:33.815Z,86.91
2019-03-21T08:21:33.781Z,86.54
2019-03-21T08:22:33.753Z,86.16
2019-03-21T08:23:33.726Z,86.44
2019-03-21T08:24:33.702Z,86.77
2019-03-21T08:25:33.668Z,86.58
2019-03-21T08:26:33.639Z,85.82
2019-03-21T08:27:33.612Z,85.16
2019-03-21T08:28:33.584Z,84.87
2019-03-21T08:29:33.556Z,84.40
2019-03-21T08:30:33.527Z,84.68
2019-03-21T08:31:33.500Z,84.97
2019-03-21T08:32:33.471Z,84.40
2019-03-21T08:33:33.445Z,83.73
2019-03-21T08:34:33.415Z,84.01
2019-03-21T08:35:33.396Z,84.59
2019-03-21T08:36:33.365Z,84.87
2019-03-21T08:37:33.337Z,84.01
2019-03-21T08:38:33.303Z,83.83
2019-03-21T08:39:33.276Z,83.45
2019-03-21T08:40:33.248Z,83.16
2019-03-21T08:41:33.220Z,83.26
2019-03-21T08:42:33.195Z,83.39
2019-03-21T08:43:33.162Z,83.20
2019-03-21T08:44:33.887Z,83.30
2019-03-21T08:45:33.109Z,83.20
2019-03-21T08:46:33.080Z,0.00
2019-03-21T08:47:33.052Z,82.16
2019-03-21T08:48:33.025Z,82.26
2019-03-21T08:49:33.001Z,82.16
2019-03-21T08:50:32.969Z,82.35
2019-03-21T08:51:32.941Z,81.21
2019-03-21T08:52:32.912Z,81.02
2019-03-21T08:53:32.886Z,81.30
2019-03-21T08:54:34.978Z,81.12
2019-03-21T08:55:32.830Z,81.02
2019-03-21T08:56:32.806Z,80.93
2019-03-21T08:57:32.776Z,80.83
2019-03-21T08:58:32.747Z,81.12
2019-03-21T08:59:32.720Z,81.02
2019-03-21T09:00:34.356Z,81.12
2019-03-21T09:01:32.666Z,81.02
2019-03-21T09:02:32.637Z,80.83
2019-03-21T09:03:32.610Z,80.64
2019-03-21T09:04:32.582Z,80.93
2019-03-21T09:05:32.558Z,81.40
2019-03-21T09:06:32.527Z,81.49
2019-03-21T09:07:32.499Z,81.82
2019-03-21T09:08:32.476Z,81.82
2019-03-21T09:09:32.446Z,81.16
2019-03-21T09:10:34.535Z,80.96
2019-03-21T09:11:32.394Z,80.96
2019-03-21T09:12:32.362Z,80.11
2019-03-21T09:13:32.334Z,80.11
2019-03-21T09:14:32.307Z,80.16
2019-03-21T09:15:32.280Z,80.64
2019-03-21T09:16:32.253Z,81.16
2019-03-21T09:17:32.977Z,81.82
2019-03-21T09:18:32.205Z,81.44
2019-03-21T09:19:32.172Z,80.96
2019-03-21T09:20:32.157Z,80.87
2019-03-21T09:21:32.118Z,80.21
2019-03-21T09:22:32.092Z,79.92
2019-03-21T09:23:32.062Z,80.11
2019-03-21T09:24:32.035Z,80.02
2019-03-21T09:25:32.010Z,80.02
2019-03-21T09:26:31.981Z,80.30
2019-03-21T09:27:31.955Z,80.02
2019-03-21T09:28:33.430Z,79.83
2019-03-21T09:29:31.899Z,80.21
2019-03-21T09:30:31.872Z,80.11
2019-03-21T09:31:31.845Z,80.11
2019-03-21T09:32:31.819Z,80.02
2019-03-21T09:33:31.791Z,80.30
2019-03-21T09:34:34.015Z,80.21
2019-03-21T09:35:31.741Z,80.30
2019-03-21T09:36:31.709Z,80.49
2019-03-21T09:37:31.685Z,79.73
2019-03-21T09:38:31.656Z,78.88
2019-03-21T09:39:31.627Z,78.97
2019-03-21T09:40:31.600Z,79.16
2019-03-21T09:41:31.577Z,79.25
2019-03-21T09:42:31.546Z,79.44
2019-03-21T09:43:31.520Z,79.35
2019-03-21T09:44:31.493Z,79.63
2019-03-21T09:45:31.467Z,78.97
2019-03-21T09:46:31.438Z,78.97
2019-03-21T09:47:31.411Z,78.97
2019-03-21T09:48:31.385Z,78.69
2019-03-21T09:49:31.357Z,78.59
2019-03-21T09:50:31.337Z,78.88
2019-03-21T09:51:37.312Z,79.06
2019-03-21T09:52:31.276Z,79.44
2019-03-21T09:53:31.249Z,79.30
2019-03-21T09:54:31.221Z,79.39
2019-03-21T09:55:31.196Z,79.39
2019-03-21T09:56:31.167Z,79.30
2019-03-21T09:57:31.141Z,79.30
2019-03-21T09:58:31.113Z,78.72
2019-03-21T09:59:31.087Z,77.97
2019-03-21T10:00:31.060Z,77.49
2019-03-21T10:01:31.033Z,77.58
2019-03-21T10:02:31.006Z,77.68
2019-03-21T10:03:30.979Z,77.39
2019-03-21T10:04:30.955Z,77.24
2019-03-21T10:05:30.927Z,77.24
2019-03-21T10:06:30.899Z,76.57
2019-03-21T10:07:30.872Z,76.57
2019-03-21T10:08:30.846Z,76.10
2019-03-21T10:09:30.821Z,76.48
2019-03-21T10:10:30.792Z,76.29
2019-03-21T10:11:30.766Z,76.29
2019-03-21T10:12:30.739Z,76.20
2019-03-21T10:13:30.713Z,75.34
2019-03-21T10:14:30.683Z,75.15
2019-03-21T10:15:30.667Z,74.67
2019-03-21T10:16:30.632Z,74.87
2019-03-21T10:17:30.604Z,75.34
2019-03-21T10:18:30.578Z,75.15
2019-03-21T10:19:30.551Z,75.43
2019-03-21T10:20:30.525Z,75.24
2019-03-21T10:21:42.534Z,74.87
2019-03-21T10:22:30.472Z,75.05
2019-03-21T10:23:30.445Z,75.72
2019-03-21T10:24:35.673Z,75.24
2019-03-21T10:25:31.747Z,75.15
2019-03-21T10:26:30.365Z,75.62
2019-03-21T10:27:30.339Z,75.62
2019-03-21T10:28:30.314Z,76.29
2019-03-21T10:29:30.287Z,75.43
2019-03-21T10:30:30.259Z,74.77
2019-03-21T10:31:30.234Z,74.39
2019-03-21T10:32:30.207Z,74.39
2019-03-21T10:33:30.182Z,74.39
2019-03-21T10:34:30.155Z,73.72
2019-03-21T10:35:32.566Z,73.72
2019-03-21T10:36:30.103Z,73.82
2019-03-21T10:37:30.077Z,73.53
2019-03-21T10:38:30.049Z,73.82
2019-03-21T10:39:30.024Z,73.85
2019-03-21T10:40:29.996Z,73.95
2019-03-21T10:41:29.976Z,74.14
2019-03-21T10:42:29.944Z,74.43
2019-03-21T10:43:29.917Z,74.71
2019-03-21T10:44:29.892Z,74.71
2019-03-21T10:45:29.866Z,74.90
2019-03-21T10:46:29.840Z,74.71
2019-03-21T10:47:29.814Z,74.80
2019-03-21T10:48:29.788Z,74.99
2019-03-21T10:49:29.763Z,75.67
2019-03-21T10:50:29.735Z,74.99
2019-03-21T10:51:29.712Z,74.04
2019-03-21T10:52:29.684Z,73.19
2019-03-21T10:53:29.659Z,73.76
2019-03-21T10:54:29.631Z,73.95
2019-03-21T10:55:29.608Z,73.13
2019-03-21T10:56:29.580Z,73.13
2019-03-21T10:57:29.553Z,73.41
2019-03-21T10:58:29.527Z,72.37
2019-03-21T10:59:29.501Z,71.80
2019-03-21T11:00:29.477Z,72.17
2019-03-21T11:01:29.449Z,72.17
2019-03-21T11:02:29.422Z,72.17
2019-03-21T11:03:29.397Z,71.45
2019-03-21T11:04:29.375Z,70.94
2019-03-21T11:05:29.347Z,69.89
2019-03-21T11:06:29.322Z,70.27
2019-03-21T11:07:29.296Z,72.27
2019-03-21T11:08:29.269Z,72.56
2019-03-21T11:09:29.243Z,72.02
2019-03-21T11:10:29.217Z,71.55
